Perus, Brazil
Current Conditions -  °F | °C
As of 9:00 PM on Sunday 23 Nov 2014 (Local Time) from SBMT Reporting Station
Overcast Overcast  
Wind Chill: 70°   Ceiling: 1200
Heat Index: 70°   Visibility: 4mi
Dew Point: 64°   Wind: 9mph
Humidity: 83%   Direction: 150°SSE
Pressure: 30.03"   Gusts: NA
Location:  23.42°S, 46.75°W
Report Text: SBMT 232300Z 15008KT 6000 BKN012 OVC020 21/18 Q1017
Loading
Personal Weather Stations






























Interactive Weather Map New forecast layout! Learn more

10-Day Weather Forecast

Advertisements
Track Severe Weather on mobile